Time;durP1;ratioP1;P1;durP2;ratioP2;P2;SDS_P1;SDS_P2;PMS_P1;PMS_P2;Temp;Humidity;BMP_temperature;BMP_pressure;BME280_temperature;BME280_humidity;BME280_pressure;Samples;Min_cycle;Max_cycle;Signal;HPM_P1;HPM_P2
2023/05/13 00:01:30;;;;;;;6.32;4.15;;;;;;;11.43;86.03;101807.84;4978238;28;20029;-88
2023/05/13 00:03:55;;;;;;;4.85;4.03;;;;;;;11.34;86.74;101783.09;4978429;28;20049;-89
2023/05/13 00:06:21;;;;;;;5.25;3.50;;;;;;;11.44;85.78;101812.13;5010927;28;20037;-88
2023/05/13 00:08:46;;;;;;;3.45;2.85;;;;;;;11.42;86.25;101812.19;5011867;28;20065;-89
2023/05/13 00:11:12;;;;;;;6.53;3.05;;;;;;;11.38;86.29;101805.38;4994323;28;20037;-89
2023/05/13 00:13:37;;;;;;;4.82;3.08;;;;;;;11.31;86.27;101805.66;4977810;28;20018;-90
2023/05/13 00:16:03;;;;;;;8.52;4.05;;;;;;;11.35;87.22;101786.53;4994758;28;20041;-90
2023/05/13 00:18:28;;;;;;;5.15;3.78;;;;;;;11.43;86.86;101794.88;4978446;28;20030;-88
2023/05/13 00:20:55;;;;;;;3.80;3.03;;;;;;;11.16;86.97;101752.63;4994268;28;20038;-90
2023/05/13 00:23:20;;;;;;;7.72;3.67;;;;;;;11.36;86.77;101791.66;4994688;28;20033;-89
2023/05/13 00:25:46;;;;;;;3.70;3.05;;;;;;;11.37;86.40;101808.88;5010536;28;20396;-89
2023/05/13 00:28:13;;;;;;;4.82;3.97;;;;;;;11.38;87.07;101809.72;4978314;28;20522;-89
2023/05/13 00:30:43;;;;;;;4.32;3.20;;;;;;;11.38;86.65;101807.13;4978911;28;20026;-89
2023/05/13 00:33:08;;;;;;;3.60;2.55;;;;;;;11.40;86.61;101810.50;5010833;28;20491;-89
2023/05/13 00:35:34;;;;;;;5.68;3.33;;;;;;;11.37;84.95;101810.63;4994320;28;20058;-90
2023/05/13 00:38:00;;;;;;;14.07;3.28;;;;;;;11.28;85.37;101800.56;4994346;28;20479;-90
2023/05/13 00:40:25;;;;;;;5.13;3.47;;;;;;;11.32;85.74;101797.84;5010390;28;20041;-88
2023/05/13 00:42:51;;;;;;;9.30;3.35;;;;;;;11.34;85.73;101802.97;5011953;28;20101;-89
2023/05/13 00:45:16;;;;;;;6.05;4.15;;;;;;;11.42;84.22;101800.97;5010777;28;20084;-89
2023/05/13 00:47:42;;;;;;;4.93;3.60;;;;;;;11.22;83.77;101772.28;4994200;28;20026;-90
2023/05/13 00:50:08;;;;;;;5.03;3.67;;;;;;;11.43;83.02;101805.25;5010471;28;20491;-89
2023/05/13 00:52:35;;;;;;;6.90;4.05;;;;;;;11.34;83.23;101788.25;4994182;28;20459;-89
2023/05/13 00:55:00;;;;;;;13.43;3.78;;;;;;;11.30;84.25;101801.34;4994067;28;20049;-91
2023/05/13 00:57:26;;;;;;;5.53;3.60;;;;;;;11.20;84.19;101786.13;4993934;28;20507;-89
2023/05/13 00:59:51;;;;;;;3.90;3.20;;;;;;;11.28;83.61;101790.22;4994168;28;20099;-88
2023/05/13 01:02:41;;;;;;;4.65;3.47;;;;;;;11.25;83.85;101798.09;4993909;28;20105;-90
2023/05/13 01:05:34;;;;;;;6.10;3.40;;;;;;;11.13;83.63;101783.81;5010385;28;20420;-91
2023/05/13 01:08:39;;;;;;;3.72;2.90;;;;;;;11.17;83.65;101801.78;5011579;28;20022;-89
2023/05/13 01:11:14;;;;;;;5.65;3.03;;;;;;;11.22;84.28;101808.56;4996644;28;20026;-89
2023/05/13 01:13:42;;;;;;;5.35;2.92;;;;;;;11.18;84.62;101810.38;4994839;28;20032;-89
2023/05/13 01:16:20;;;;;;;3.53;2.60;;;;;;;10.98;85.58;101784.28;4994293;28;20026;-92
2023/05/13 01:18:56;;;;;;;5.05;2.78;;;;;;;11.15;85.33;101808.75;5010045;28;20032;-90
2023/05/13 01:21:27;;;;;;;5.40;3.20;;;;;;;11.06;84.76;101813.38;4995175;28;20481;-91
2023/05/13 01:23:53;;;;;;;5.40;3.40;;;;;;;10.91;85.27;101804.34;4977583;28;20018;-90
2023/05/13 01:26:19;;;;;;;5.68;4.10;;;;;;;10.85;85.69;101799.38;5013137;28;20087;-88
2023/05/13 01:28:45;;;;;;;7.68;3.25;;;;;;;10.95;84.74;101816.31;4997985;28;20033;-89
2023/05/13 01:31:12;;;;;;;4.65;2.72;;;;;;;10.96;84.61;101823.19;5013759;28;20033;-90
2023/05/13 01:33:37;;;;;;;3.95;2.90;;;;;;;10.87;84.37;101829.47;4997591;28;20057;-89
2023/05/13 01:36:03;;;;;;;3.60;2.50;;;;;;;10.85;84.47;101841.63;4981353;28;20109;-91
2023/05/13 01:38:29;;;;;;;6.75;3.65;;;;;;;10.77;84.92;101824.63;4997563;28;20026;-89
2023/05/13 01:40:55;;;;;;;4.20;2.88;;;;;;;10.83;85.97;101840.00;4997830;28;20513;-90
2023/05/13 01:43:20;;;;;;;5.82;3.45;;;;;;;10.65;85.35;101812.09;4997728;28;20030;-89
2023/05/13 01:45:46;;;;;;;7.63;4.07;;;;;;;10.75;85.11;101834.19;4997565;28;20037;-89
2023/05/13 01:48:11;;;;;;;7.68;3.03;;;;;;;10.73;85.71;101843.75;4981156;28;20380;-89
2023/05/13 01:50:37;;;;;;;5.13;3.10;;;;;;;10.52;85.34;101812.47;4997257;28;20025;-89
2023/05/13 01:53:02;;;;;;;3.20;2.70;;;;;;;10.59;84.60;101826.88;4996999;28;20475;-88
2023/05/13 01:55:28;;;;;;;5.40;3.47;;;;;;;10.69;85.51;101839.56;5013873;28;20040;-89
2023/05/13 01:57:53;;;;;;;5.57;3.38;;;;;;;10.62;85.02;101820.78;4997390;28;20038;-90
2023/05/13 02:00:18;;;;;;;4.70;3.30;;;;;;;10.78;84.19;101839.28;4997099;28;20041;-89
2023/05/13 02:02:45;;;;;;;3.53;2.70;;;;;;;10.72;84.39;101845.50;4997260;28;20510;-89
2023/05/13 02:05:11;;;;;;;3.17;2.40;;;;;;;10.72;84.67;101829.13;4997479;28;20038;-90
2023/05/13 02:07:36;;;;;;;5.43;3.42;;;;;;;10.70;85.14;101836.06;4996875;28;20070;-90
2023/05/13 02:10:02;;;;;;;4.30;3.55;;;;;;;10.55;84.87;101801.16;5013031;28;20104;-88
2023/05/13 02:12:27;;;;;;;3.72;2.70;;;;;;;10.71;85.14;101835.16;5013456;28;20109;-90
2023/05/13 02:14:56;;;;;;;5.35;3.60;;;;;;;10.72;85.85;101839.47;5013411;28;20037;-90
2023/05/13 02:17:21;;;;;;;4.50;2.88;;;;;;;10.60;85.99;101810.47;5013613;28;20033;-90
2023/05/13 02:19:47;;;;;;;5.13;3.72;;;;;;;10.78;85.89;101842.72;5014185;28;20064;-88
2023/05/13 02:22:12;;;;;;;5.35;3.95;;;;;;;10.73;86.13;101838.59;4980384;28;20029;-88
2023/05/13 02:24:39;;;;;;;9.27;4.15;;;;;;;10.57;85.45;101823.50;4996601;28;20022;-89
2023/05/13 02:27:06;;;;;;;6.10;3.17;;;;;;;10.64;85.33;101821.59;4997079;28;20034;-89
2023/05/13 02:29:31;;;;;;;4.20;3.40;;;;;;;10.67;84.84;101823.22;4997012;28;20034;-88
2023/05/13 02:31:57;;;;;;;5.03;3.42;;;;;;;10.77;84.74;101833.25;5012924;28;20037;-89
2023/05/13 02:34:22;;;;;;;9.02;3.75;;;;;;;10.63;85.86;101825.91;5013106;28;20034;-89
2023/05/13 02:36:48;;;;;;;9.43;4.13;;;;;;;10.63;85.29;101825.91;5011827;28;20026;-90
2023/05/13 02:39:13;;;;;;;5.68;3.58;;;;;;;10.61;86.01;101832.84;5012773;28;20092;-89
2023/05/13 02:41:58;;;;;;;3.70;3.10;;;;;;;10.69;86.56;101849.91;5012874;28;20061;-89
2023/05/13 02:44:24;;;;;;;7.40;3.53;;;;;;;10.57;86.90;101836.44;5012804;28;20026;-88
2023/05/13 02:46:50;;;;;;;4.18;3.78;;;;;;;10.75;87.07;101850.56;5013930;28;20044;-89
2023/05/13 02:49:15;;;;;;;5.68;4.28;;;;;;;10.82;86.02;101840.91;5012541;28;20030;-90
2023/05/13 02:51:41;;;;;;;5.75;3.75;;;;;;;10.80;86.61;101837.47;4996041;28;20041;-88
2023/05/13 02:54:06;;;;;;;12.38;3.83;;;;;;;10.87;86.73;101849.34;4979947;28;20403;-88
2023/05/13 02:56:31;;;;;;;5.07;3.25;;;;;;;10.77;86.83;101840.16;4979997;28;20030;-89
2023/05/13 02:58:57;;;;;;;3.80;2.72;;;;;;;10.73;87.15;101836.00;5012248;28;20037;-89
2023/05/13 03:01:25;;;;;;;4.38;3.53;;;;;;;10.71;86.66;101841.19;4995983;28;20044;-88
2023/05/13 03:03:50;;;;;;;7.15;3.63;;;;;;;10.79;87.19;101851.31;4996447;28;20100;-89
2023/05/13 03:06:16;;;;;;;8.88;5.72;;;;;;;10.75;87.19;101852.31;5013231;28;20026;-89
2023/05/13 03:08:41;;;;;;;5.78;4.55;;;;;;;10.70;87.77;101847.25;4995774;28;20108;-89
2023/05/13 03:11:06;;;;;;;5.10;3.42;;;;;;;10.76;87.43;101851.41;4995947;28;20049;-88
2023/05/13 03:13:32;;;;;;;7.50;4.32;;;;;;;10.81;86.57;101859.88;5011897;28;20026;-90
2023/05/13 03:15:57;;;;;;;5.03;3.33;;;;;;;10.57;86.90;101820.91;4996022;28;20542;-90
2023/05/13 03:18:23;;;;;;;6.25;3.10;;;;;;;10.75;86.44;101858.34;5012089;28;20450;-90
2023/05/13 03:20:48;;;;;;;5.30;3.42;;;;;;;10.69;87.32;101857.66;4995574;28;20052;-89
2023/05/13 03:23:14;;;;;;;4.85;3.58;;;;;;;10.76;87.13;101864.38;4995737;28;20038;-89
2023/05/13 03:25:39;;;;;;;5.38;3.58;;;;;;;10.73;87.60;101851.53;4995712;28;20037;-88
2023/05/13 03:28:05;;;;;;;5.65;3.95;;;;;;;10.79;86.73;101861.66;4995641;28;20026;-89
2023/05/13 03:30:31;;;;;;;5.00;3.78;;;;;;;10.86;86.55;101860.59;4979464;28;20125;-88
2023/05/13 03:32:56;;;;;;;6.32;3.97;;;;;;;10.82;86.34;101857.28;5011737;28;20116;-90
2023/05/13 03:35:22;;;;;;;5.40;3.85;;;;;;;10.88;86.00;101882.09;4978862;28;20471;-91
2023/05/13 03:37:47;;;;;;;4.43;3.83;;;;;;;10.63;85.52;101859.56;4995532;28;20026;-89
2023/05/13 03:40:13;;;;;;;3.83;3.20;;;;;;;10.76;86.37;101880.75;4995088;28;20392;-89
2023/05/13 03:42:38;;;;;;;6.05;3.35;;;;;;;10.84;85.08;101885.69;4979197;28;20026;-90
2023/05/13 03:45:05;;;;;;;4.40;3.80;;;;;;;10.81;86.23;101893.53;4979036;28;20029;-89
2023/05/13 03:47:30;;;;;;;5.57;4.20;;;;;;;10.61;85.63;101861.31;4995141;28;20030;-91
2023/05/13 03:49:55;;;;;;;6.60;3.88;;;;;;;10.86;85.23;101900.28;5010418;28;20029;-88
2023/05/13 03:52:22;;;;;;;4.20;3.05;;;;;;;10.85;84.83;101885.66;4994967;28;20033;-88
2023/05/13 03:54:47;;;;;;;4.07;3.65;;;;;;;10.75;85.67;101867.84;4978924;28;20030;-90
2023/05/13 03:57:12;;;;;;;6.63;3.95;;;;;;;10.81;85.38;101865.91;5011730;28;20030;-88
2023/05/13 03:59:38;;;;;;;5.10;3.40;;;;;;;10.89;85.31;101879.47;4995237;28;20025;-88
2023/05/13 04:02:03;;;;;;;5.57;4.03;;;;;;;10.71;85.34;101861.06;4994620;28;20088;-89
2023/05/13 04:04:29;;;;;;;6.43;3.00;;;;;;;10.91;85.46;101892.38;5010716;28;20029;-91
2023/05/13 04:06:54;;;;;;;3.65;2.42;;;;;;;10.81;85.47;101884.03;5011378;28;20033;-89
2023/05/13 04:09:20;;;;;;;6.05;4.00;;;;;;;10.86;85.80;101905.47;4978358;28;20050;-92
2023/05/13 04:11:45;;;;;;;6.85;4.03;;;;;;;10.90;84.52;101896.69;4994843;28;20034;-88
2023/05/13 04:14:11;;;;;;;5.57;3.28;;;;;;;10.50;84.81;101865.97;4994981;28;20029;-89
2023/05/13 04:16:36;;;;;;;8.57;4.63;;;;;;;10.85;85.29;101919.31;5010746;28;20080;-89
2023/05/13 04:19:02;;;;;;;5.15;3.85;;;;;;;10.81;85.56;101907.31;4994080;28;20388;-88
2023/05/13 04:21:27;;;;;;;5.20;3.22;;;;;;;10.81;85.55;101914.25;5011190;28;20392;-89
2023/05/13 04:23:53;;;;;;;5.60;3.30;;;;;;;10.90;85.51;101932.09;4994852;28;20026;-89
2023/05/13 04:26:20;;;;;;;6.93;3.65;;;;;;;10.96;85.55;101926.75;4994411;28;20033;-91
2023/05/13 04:28:45;;;;;;;5.43;3.38;;;;;;;11.01;86.20;101929.19;4995039;28;20549;-89
2023/05/13 04:31:11;;;;;;;4.72;3.83;;;;;;;11.01;84.58;101914.53;4994430;28;20030;-88
2023/05/13 04:33:36;;;;;;;5.43;3.92;;;;;;;10.99;84.74;101915.44;4994163;28;20059;-88
2023/05/13 04:36:02;;;;;;;6.95;4.57;;;;;;;11.10;85.59;101923.72;4978403;28;20038;-91
2023/05/13 04:38:29;;;;;;;7.30;4.03;;;;;;;11.16;86.46;101931.31;4994236;28;20575;-89
2023/05/13 04:40:54;;;;;;;4.65;3.83;;;;;;;11.18;86.17;101922.59;4978254;28;20030;-89
2023/05/13 04:43:20;;;;;;;7.13;4.63;;;;;;;11.24;86.37;101931.94;5010717;28;20038;-91
2023/05/13 04:45:46;;;;;;;5.22;3.97;;;;;;;11.32;86.82;101935.16;4994262;28;20030;-89
2023/05/13 04:48:11;;;;;;;4.78;3.40;;;;;;;11.25;86.57;101927.59;5010408;28;20434;-90
2023/05/13 04:50:37;;;;;;;4.57;3.13;;;;;;;11.35;86.64;101944.56;5010280;28;20045;-90
2023/05/13 04:53:02;;;;;;;4.25;3.03;;;;;;;11.32;86.89;101944.66;5010578;28;20408;-89
2023/05/13 04:55:28;;;;;;;6.20;4.25;;;;;;;11.42;87.30;101933.13;4977956;28;20038;-89
2023/05/13 04:57:53;;;;;;;6.22;3.97;;;;;;;11.44;87.36;101950.31;4994025;28;20483;-90
2023/05/13 05:00:19;;;;;;;5.00;3.53;;;;;;;11.58;86.79;101949.84;5010124;28;20033;-90
2023/05/13 05:02:44;;;;;;;6.15;4.32;;;;;;;11.59;86.63;101942.94;4993910;28;20034;-89
2023/05/13 05:05:10;;;;;;;5.45;3.22;;;;;;;11.59;86.54;101942.94;5010156;28;20496;-89
2023/05/13 05:07:39;;;;;;;4.60;3.00;;;;;;;11.70;86.54;101946.88;5010725;28;20091;-89
2023/05/13 05:10:06;;;;;;;6.30;4.72;;;;;;;11.86;86.35;101951.59;4994576;28;20511;-90
2023/05/13 05:12:33;;;;;;;6.82;4.25;;;;;;;11.91;86.31;101965.25;5010196;28;20042;-90
2023/05/13 05:14:58;;;;;;;8.93;4.50;;;;;;;11.91;86.24;101952.31;4993924;28;20034;-88
2023/05/13 05:17:25;;;;;;;5.97;3.83;;;;;;;11.97;86.48;101955.50;5010006;28;20026;-89
2023/05/13 05:19:50;;;;;;;4.68;3.88;;;;;;;11.97;85.69;101949.47;5009780;28;20033;-89
2023/05/13 05:22:16;;;;;;;5.88;4.20;;;;;;;12.18;84.03;101966.91;5011437;28;20029;-89
2023/05/13 05:24:41;;;;;;;5.47;4.05;;;;;;;12.09;84.57;101949.06;4993685;28;20030;-89
2023/05/13 05:27:07;;;;;;;6.05;3.28;;;;;;;12.19;83.12;101953.06;5010387;28;20041;-91
2023/05/13 05:29:32;;;;;;;5.38;3.38;;;;;;;12.15;82.46;101956.63;4993644;28;20030;-89
2023/05/13 05:31:58;;;;;;;4.03;3.25;;;;;;;12.19;81.49;101960.84;5011063;28;20479;-89
2023/05/13 05:34:23;;;;;;;4.68;3.30;;;;;;;12.11;82.03;101947.28;5009535;28;20033;-90
2023/05/13 05:36:48;;;;;;;5.85;4.03;;;;;;;12.14;81.87;101959.28;5011333;28;20033;-89
2023/05/13 05:39:14;;;;;;;5.15;3.17;;;;;;;11.97;81.34;101939.09;4977652;28;20050;-90
2023/05/13 05:41:39;;;;;;;7.53;4.05;;;;;;;12.20;80.66;101972.91;5009896;28;20033;-90
2023/05/13 05:44:05;;;;;;;4.45;3.20;;;;;;;12.17;80.72;101970.41;4976947;28;20022;-89
2023/05/13 05:46:30;;;;;;;4.63;3.22;;;;;;;12.14;80.77;101970.50;4993577;28;20415;-90
2023/05/13 05:48:56;;;;;;;5.60;2.92;;;;;;;11.94;80.54;101923.66;5010248;28;20028;-90
2023/05/13 05:51:21;;;;;;;4.57;3.13;;;;;;;12.23;80.71;101978.00;4993570;28;20030;-90
2023/05/13 05:53:47;;;;;;;7.10;3.97;;;;;;;12.22;80.84;101967.66;4993604;28;20393;-90
2023/05/13 05:56:12;;;;;;;6.95;3.80;;;;;;;12.20;81.12;101964.28;5010668;28;20041;-90
2023/05/13 05:58:38;;;;;;;7.10;4.35;;;;;;;12.28;81.87;101976.06;4992923;28;20037;-92
2023/05/13 06:01:04;;;;;;;5.18;3.40;;;;;;;12.32;81.10;101982.00;4993215;28;20030;-89
2023/05/13 06:03:30;;;;;;;6.78;3.97;;;;;;;12.31;81.39;101972.53;4993532;28;20034;-90
2023/05/13 06:05:55;;;;;;;4.65;3.03;;;;;;;12.37;81.78;101971.47;5010740;28;20057;-90
2023/05/13 06:08:28;;;;;;;8.02;3.13;;;;;;;12.48;80.66;101971.94;4993334;28;20054;-89
2023/05/13 06:10:54;;;;;;;6.15;3.78;;;;;;;12.54;80.49;101969.97;4994093;28;20161;-89
2023/05/13 06:13:19;;;;;;;4.75;3.10;;;;;;;12.60;76.76;101961.13;4995568;28;20030;-89
2023/05/13 06:15:45;;;;;;;4.53;3.58;;;;;;;12.61;77.46;101957.63;5013393;28;20029;-88
2023/05/13 06:18:10;;;;;;;4.75;3.53;;;;;;;12.60;75.37;101961.13;5013379;28;20034;-89
2023/05/13 06:20:36;;;;;;;9.57;5.13;;;;;;;12.69;74.78;101963.41;4996415;28;20525;-88
2023/05/13 06:23:01;;;;;;;6.35;3.30;;;;;;;12.76;72.86;101971.78;4980434;28;20029;-89
2023/05/13 06:25:27;;;;;;;4.85;3.00;;;;;;;12.84;72.42;101981.00;5012954;28;20388;-89
2023/05/13 06:27:52;;;;;;;3.90;2.85;;;;;;;12.78;72.38;101983.84;4980098;28;20411;-89
2023/05/13 06:30:17;;;;;;;4.45;3.00;;;;;;;12.65;72.66;101956.59;4996697;28;20460;-89
2023/05/13 06:32:43;;;;;;;4.22;3.40;;;;;;;12.88;73.64;101990.38;4996573;28;20029;-88
2023/05/13 06:35:08;;;;;;;4.38;3.20;;;;;;;12.91;74.12;101987.66;4996405;28;20033;-90
2023/05/13 06:37:34;;;;;;;6.20;3.83;;;;;;;12.95;75.46;101988.38;5012578;28;20033;-89
2023/05/13 06:39:59;;;;;;;4.82;3.60;;;;;;;13.10;74.03;102003.41;4996236;28;20030;-88
2023/05/13 06:42:25;;;;;;;4.50;3.40;;;;;;;13.10;75.06;102007.75;5012187;28;20088;-88
2023/05/13 06:44:50;;;;;;;6.95;3.03;;;;;;;13.11;74.34;102018.09;4979790;28;20018;-90
2023/05/13 06:47:16;;;;;;;4.55;3.30;;;;;;;13.17;73.61;102014.41;4996394;28;20025;-90
2023/05/13 06:49:41;;;;;;;5.03;3.00;;;;;;;13.18;70.69;102008.31;5012828;28;20038;-88
2023/05/13 06:52:08;;;;;;;4.72;3.28;;;;;;;13.31;70.62;102019.13;4996207;28;20030;-90
2023/05/13 06:54:33;;;;;;;5.60;3.70;;;;;;;13.33;70.59;102007.75;4996156;28;20100;-89
2023/05/13 06:56:59;;;;;;;13.30;3.85;;;;;;;13.45;69.57;102017.69;5012221;28;20446;-88
2023/05/13 06:59:25;;;;;;;5.88;3.70;;;;;;;13.52;69.43;102025.25;4979981;28;20030;-90
2023/05/13 07:01:50;;;;;;;5.93;3.55;;;;;;;13.53;69.96;102026.94;5012028;28;20037;-89
2023/05/13 07:04:15;;;;;;;5.30;3.30;;;;;;;13.58;71.08;102035.44;5012311;28;20034;-88
2023/05/13 07:06:41;;;;;;;11.57;3.53;;;;;;;13.61;68.54;102030.09;4995646;28;20041;-88
2023/05/13 07:09:08;;;;;;;4.35;3.08;;;;;;;13.61;66.88;102024.91;5012263;28;20049;-89
2023/05/13 07:11:37;;;;;;;3.55;2.72;;;;;;;13.66;65.89;102030.75;5011774;28;20060;-89
2023/05/13 07:14:02;;;;;;;5.63;3.65;;;;;;;13.86;67.13;102023.00;5012159;28;20419;-89
2023/05/13 07:16:28;;;;;;;5.07;3.58;;;;;;;13.92;66.26;102021.91;4995930;28;20125;-89
2023/05/13 07:18:53;;;;;;;5.22;3.58;;;;;;;13.98;65.63;102011.25;4995814;28;20553;-89
2023/05/13 07:21:19;;;;;;;4.28;2.63;;;;;;;13.86;63.79;102004.78;4995756;28;20034;-88
2023/05/13 07:23:44;;;;;;;4.35;2.58;;;;;;;13.93;64.58;102016.63;4995722;28;20033;-89
2023/05/13 07:26:10;;;;;;;4.47;3.15;;;;;;;14.09;64.37;102013.41;4995641;28;20026;-91
2023/05/13 07:28:35;;;;;;;4.38;3.05;;;;;;;14.16;65.19;102002.69;5011876;28;20022;-90
2023/05/13 07:31:01;;;;;;;6.53;3.47;;;;;;;14.40;63.86;102016.41;5012006;28;20022;-89
2023/05/13 07:33:26;;;;;;;15.85;3.85;;;;;;;14.34;61.83;102006.25;4995378;28;20038;-89
2023/05/13 07:35:52;;;;;;;4.60;3.00;;;;;;;14.34;60.99;102004.50;5011887;28;20026;-88
2023/05/13 07:38:17;;;;;;;4.80;2.60;;;;;;;14.39;61.69;101998.25;4979290;28;20100;-91
2023/05/13 07:40:43;;;;;;;5.72;2.80;;;;;;;14.51;60.82;102008.16;5011510;28;20030;-90
2023/05/13 07:43:09;;;;;;;4.05;2.60;;;;;;;14.43;60.50;101999.81;5011619;28;20041;-90
2023/05/13 07:45:34;;;;;;;3.67;2.50;;;;;;;14.64;59.73;101989.31;5012879;28;20504;-89
2023/05/13 07:48:00;;;;;;;5.65;3.00;;;;;;;14.72;59.04;102004.63;4979287;28;20044;-88
2023/05/13 07:50:25;;;;;;;5.93;3.22;;;;;;;14.87;60.22;102001.34;4995555;28;20450;-91
2023/05/13 07:52:51;;;;;;;5.03;3.30;;;;;;;15.06;57.50;102014.38;4995200;28;20129;-89
2023/05/13 07:55:16;;;;;;;3.88;2.67;;;;;;;15.20;59.26;102011.97;4994695;28;20030;-89
2023/05/13 07:57:42;;;;;;;5.53;3.13;;;;;;;15.26;57.97;102008.25;4979065;28;20030;-89
2023/05/13 08:00:08;;;;;;;4.72;3.22;;;;;;;15.32;58.37;102023.59;5011363;28;20026;-90
2023/05/13 08:02:34;;;;;;;4.65;2.88;;;;;;;15.37;57.53;102020.78;4978949;28;20040;-89
2023/05/13 08:05:02;;;;;;;3.95;2.70;;;;;;;15.43;57.78;102021.31;4995112;28;20038;-89
2023/05/13 08:07:28;;;;;;;4.22;2.90;;;;;;;15.50;56.47;102016.69;4994950;28;20060;-89
2023/05/13 08:09:53;;;;;;;4.40;3.20;;;;;;;15.59;55.86;102021.47;4994685;28;20050;-90
2023/05/13 08:12:19;;;;;;;5.60;3.10;;;;;;;15.66;55.61;102028.13;5011437;28;20092;-89
2023/05/13 08:14:44;;;;;;;5.40;3.60;;;;;;;15.68;55.83;102010.63;4995001;28;20039;-91
2023/05/13 08:17:10;;;;;;;5.82;3.08;;;;;;;15.90;54.90;102023.47;4994911;28;20938;-91
2023/05/13 08:19:36;;;;;;;6.05;2.97;;;;;;;15.96;56.75;102007.50;4994909;28;20030;-89
2023/05/13 08:22:02;;;;;;;4.65;2.80;;;;;;;15.83;56.52;101963.81;4978468;28;20040;-90
2023/05/13 08:24:27;;;;;;;5.05;3.38;;;;;;;16.11;56.07;101987.59;5010553;28;20069;-89
2023/05/13 08:26:53;;;;;;;5.68;3.05;;;;;;;16.25;54.50;101994.75;5012627;28;20040;-90
2023/05/13 08:29:18;;;;;;;5.45;2.83;;;;;;;16.44;53.68;102002.50;5011959;28;20022;-88
2023/05/13 08:31:44;;;;;;;4.72;3.05;;;;;;;16.49;54.28;101992.66;5011099;28;20491;-89
2023/05/13 08:34:09;;;;;;;6.18;3.63;;;;;;;16.46;52.66;101993.66;5010443;28;20424;-89
2023/05/13 08:36:35;;;;;;;4.97;3.38;;;;;;;16.53;53.83;101987.19;4993893;28;20034;-89
2023/05/13 08:39:00;;;;;;;4.22;2.83;;;;;;;16.44;52.19;101958.94;4993995;28;20026;-89
2023/05/13 08:41:26;;;;;;;4.30;2.95;;;;;;;16.95;52.65;101995.47;5010607;28;20029;-91
2023/05/13 08:43:51;;;;;;;5.22;3.00;;;;;;;17.08;52.10;102002.56;4994322;28;20025;-91
2023/05/13 08:46:17;;;;;;;7.93;2.67;;;;;;;17.01;50.45;101995.13;4978349;28;20033;-91
2023/05/13 08:48:42;;;;;;;4.75;2.50;;;;;;;16.86;50.98;101971.53;4994661;28;20030;-90
2023/05/13 08:51:08;;;;;;;4.78;2.95;;;;;;;17.05;51.76;102002.75;4994400;28;20087;-90
2023/05/13 08:53:34;;;;;;;3.88;2.70;;;;;;;17.19;52.36;101988.91;4994697;28;20036;-89
2023/05/13 08:55:59;;;;;;;4.55;3.03;;;;;;;17.30;52.74;101986.53;4994155;28;20030;-90
2023/05/13 08:58:25;;;;;;;5.18;2.92;;;;;;;17.43;50.07;101989.31;5010673;28;20034;-90
2023/05/13 09:00:52;;;;;;;9.98;3.10;;;;;;;17.45;50.92;102000.53;4994066;28;20057;-90
2023/05/13 09:03:18;;;;;;;5.32;3.13;;;;;;;17.55;51.57;102006.09;4978423;28;20022;-90
2023/05/13 09:05:44;;;;;;;8.55;2.60;;;;;;;17.62;51.74;102004.84;5010572;28;20025;-89
2023/05/13 09:08:09;;;;;;;3.13;2.38;;;;;;;17.80;50.96;102006.44;4993769;28;20053;-90
2023/05/13 09:10:35;;;;;;;4.72;2.42;;;;;;;17.89;49.43;102005.03;4994167;28;20455;-90
2023/05/13 09:13:01;;;;;;;3.30;2.33;;;;;;;17.89;49.22;101995.41;5010389;28;20030;-89
2023/05/13 09:15:26;;;;;;;8.15;2.78;;;;;;;18.04;49.64;102009.41;4977795;28;20458;-91
2023/05/13 09:18:00;;;;;;;4.30;2.92;;;;;;;18.32;48.83;102009.47;4993923;28;20531;-90
2023/05/13 09:20:26;;;;;;;5.68;3.20;;;;;;;18.49;49.13;102018.94;4994162;28;20044;-90
2023/05/13 09:22:56;;;;;;;3.15;2.30;;;;;;;18.47;47.53;102007.69;4977653;28;20487;-92
2023/05/13 09:25:25;;;;;;;2.92;2.35;;;;;;;18.62;48.76;102006.78;4994640;28;20038;-91
2023/05/13 09:27:52;;;;;;;4.25;2.67;;;;;;;18.86;48.10;102012.31;5010145;28;20533;-91
2023/05/13 09:30:19;;;;;;;5.10;2.50;;;;;;;18.88;47.56;102012.25;4994127;28;20034;-92
2023/05/13 09:32:44;;;;;;;3.50;2.55;;;;;;;18.72;47.52;101986.13;4977421;28;20705;-92
2023/05/13 09:35:12;;;;;;;3.92;2.60;;;;;;;18.89;47.37;102013.94;4994243;28;20026;-92
2023/05/13 09:37:37;;;;;;;3.42;2.88;;;;;;;18.76;47.56;101997.25;5009869;28;20491;-91
2023/05/13 09:40:03;;;;;;;4.10;2.55;;;;;;;18.72;48.27;102011.50;4977553;28;20036;-91
2023/05/13 09:42:31;;;;;;;3.65;2.75;;;;;;;18.84;49.08;102011.56;4993386;28;20033;-92
2023/05/13 09:44:57;;;;;;;3.67;2.65;;;;;;;18.82;47.21;102017.84;4994278;28;20080;-92
2023/05/13 09:47:23;;;;;;;5.95;2.72;;;;;;;18.74;47.73;102001.75;4980278;28;20030;-93
2023/05/13 09:49:54;;;;;;;4.88;2.88;;;;;;;18.89;48.73;102013.94;4998290;28;20511;-91
2023/05/13 09:52:20;;;;;;;4.68;2.65;;;;;;;18.92;49.96;102011.09;4997606;28;20375;-92
2023/05/13 09:54:46;;;;;;;4.97;3.13;;;;;;;18.86;46.43;101999.19;4981371;28;20026;-93
2023/05/13 09:57:12;;;;;;;2.80;2.30;;;;;;;18.72;47.06;102016.72;4997769;28;20041;-92
2023/05/13 09:59:37;;;;;;;3.35;2.38;;;;;;;18.61;48.00;101999.84;4981407;28;20037;-91
2023/05/13 10:02:04;;;;;;;4.70;3.28;;;;;;;18.65;48.70;102010.16;5014303;28;20462;-92
2023/05/13 10:04:29;;;;;;;5.65;2.92;;;;;;;18.62;48.27;102011.19;4997664;28;20022;-92
2023/05/13 10:06:58;;;;;;;4.78;2.80;;;;;;;18.71;47.54;102008.03;4997355;28;20030;-92
2023/05/13 10:09:26;;;;;;;5.00;2.85;;;;;;;18.76;47.62;101995.47;4997679;28;20060;-92
2023/05/13 10:11:51;;;;;;;3.75;2.53;;;;;;;18.83;47.51;101972.34;4981341;28;20037;-93
2023/05/13 10:14:17;;;;;;;3.75;2.50;;;;;;;19.01;47.49;101992.19;4997471;28;20034;-92
2023/05/13 10:16:43;;;;;;;4.35;2.47;;;;;;;19.03;47.05;101986.81;4997332;28;20034;-92
2023/05/13 10:19:08;;;;;;;4.57;2.70;;;;;;;19.12;45.83;101988.88;5014664;28;20488;-92
2023/05/13 10:21:35;;;;;;;3.15;2.25;;;;;;;18.99;45.54;101975.69;5014347;28;20084;-92
2023/05/13 10:24:01;;;;;;;3.03;2.42;;;;;;;19.15;46.69;101994.75;4997384;28;20395;-92
2023/05/13 10:26:26;;;;;;;4.13;2.55;;;;;;;19.19;46.68;101987.56;4996927;28;20025;-92
2023/05/13 10:28:52;;;;;;;4.28;2.00;;;;;;;19.18;46.66;101984.09;5013653;28;20381;-91
2023/05/13 10:31:17;;;;;;;4.43;2.53;;;;;;;19.28;47.51;101981.72;4980779;28;20447;-93
2023/05/13 10:33:43;;;;;;;4.35;2.45;;;;;;;19.24;47.03;101976.75;4997025;28;20034;-92
2023/05/13 10:36:24;;;;;;;3.00;2.40;;;;;;;19.11;46.50;101967.06;4996708;28;20092;-92
2023/05/13 10:38:50;;;;;;;6.28;1.85;;;;;;;19.25;45.62;101988.94;4981640;28;20030;-93
2023/05/13 10:41:38;;;;;;;3.45;2.35;;;;;;;19.16;45.95;101987.72;5013127;28;20059;-93
2023/05/13 10:44:03;;;;;;;3.30;2.45;;;;;;;19.16;46.47;101980.69;4996818;28;20026;-93
2023/05/13 10:46:28;;;;;;;2.72;1.85;;;;;;;19.56;44.85;101980.78;4980253;28;20392;-91
2023/05/13 10:48:56;;;;;;;5.05;2.35;;;;;;;19.72;44.07;101976.22;4980096;28;20033;-92
2023/05/13 10:51:22;;;;;;;3.33;2.22;;;;;;;19.90;45.43;101975.94;4996963;28;20113;-93
2023/05/13 10:53:49;;;;;;;2.75;2.25;;;;;;;20.17;44.81;101968.84;4997027;28;20113;-92
2023/05/13 10:56:15;;;;;;;3.45;2.17;;;;;;;20.12;43.73;101928.06;4996842;28;20041;-93
2023/05/13 10:58:41;;;;;;;2.92;1.98;;;;;;;20.43;42.74;101951.28;4995923;28;20030;-91
2023/05/13 11:01:14;;;;;;;2.53;1.70;;;;;;;20.57;41.90;101966.13;5012771;28;20033;-91
2023/05/13 11:03:40;;;;;;;2.35;1.73;;;;;;;20.60;41.49;101963.28;4996369;28;20030;-92
2023/05/13 11:06:14;;;;;;;2.35;1.73;;;;;;;20.74;40.89;101962.28;4980274;28;20458;-92
2023/05/13 11:08:44;;;;;;;2.35;1.73;;;;;;;20.78;40.68;101954.09;5012273;28;20439;-94
2023/05/13 11:11:17;;;;;;;3.63;2.10;;;;;;;20.97;40.87;101966.78;4996639;28;20562;-91
2023/05/13 11:14:01;;;;;;;3.10;1.83;;;;;;;21.25;41.62;101964.78;5012684;28;20026;-89
2023/05/13 11:16:26;;;;;;;2.65;1.77;;;;;;;21.14;38.79;101965.56;5012643;28;20026;-89
2023/05/13 11:18:52;;;;;;;3.05;1.63;;;;;;;21.23;39.21;101959.63;4995873;28;20053;-89
2023/05/13 11:21:31;;;;;;;5.32;2.17;;;;;;;21.23;38.63;101942.97;4996260;28;20038;-90